Friday, October 19, 2018, 9:55 PM GMT
Back to Local

CWEW, L'Assomption

Location: , , Canada Lat: 45.817
Local Time: 9:55 PM GMT (21:55 GMT) Lon: -73.433
Time Zone: GMT Elev: 68 ft

Show me the last for .
Show Coded

Time T Td Feel RH Dir Speed Gust Alt SLP Vis Weather Sky Remarks
2018-10-19 21:00 60 44 - 55 220° 16 24 - 29.76 0 Peak wind: 28 mph (25 kts) from 220° at 38 min
2018-10-19 20:00 61 43 - 51 220° 18 30 - 29.77 0 Peak wind: 29 mph (26 kts) from 220° at 54 min
2018-10-19 15:00 50 36 43 58 220° 15 23 - 29.94 0 Peak wind: 23 mph (20 kts) from 220° at 54 min
2018-10-19 14:00 48 35 41 61 220° 12 18 - 29.98 0 Peak wind: 24 mph (21 kts) from 200° at 47 min
2018-10-19 13:00 44 34 38 66 220° 10 - - 30.01 0 None
2018-10-19 12:00 40 31 35 71 210° 7 - - 30.02 0 None
2018-10-19 11:00 39 30 35 70 210° 6 - - 30.04 0 None
2018-10-19 10:00 40 30 35 68 210° 6 - - 30.06 0 None
2018-10-19 09:00 41 30 36 65 220° 8 - - 30.06 0 None
2018-10-19 08:00 40 29 35 64 210° 9 - - 30.08 0 None
2018-10-19 07:00 39 28 34 64 220° 7 - - - 0 None
2018-10-19 06:00 38 26 34 61 220° 6 - - - 0 None
2018-10-19 05:00 38 24 34 55 200° 5 - - - 0 None
2018-10-19 04:00 37 20 34 51 190° 3 - - - 0 None
2018-10-19 03:00 36 21 33 55 200° 3 - - - 0 None
2018-10-19 02:00 36 20 - 52 220° 2 - - - 0 None
2018-10-19 01:00 36 19 - 48 240° 2 - - 30.21 0 None
2018-10-19 00:00 34 19 30 53 240° 5 - - 30.22 0 None
2018-10-18 23:00 36 19 31 50 240° 6 - - 30.22 0 None
2018-10-18 22:00 37 19 34 47 230° 5 - - 30.22 0 None

Support USWX by starting your Amazon purchase here.